createdAt,value
2022-07-26T00:01:19.044Z,70.42
2022-07-26T00:03:48.137Z,71.37
2022-07-26T00:06:16.380Z,71.17
2022-07-26T00:08:49.528Z,71.48
2022-07-26T00:11:17.895Z,71.59
2022-07-26T00:13:46.635Z,71.54
2022-07-26T00:16:14.929Z,71.69
2022-07-26T00:18:43.609Z,71.74
2022-07-26T00:21:12.034Z,72.09
2022-07-26T00:23:40.467Z,71.78
2022-07-26T00:26:10.298Z,71.83
2022-07-26T00:28:38.804Z,71.45
2022-07-26T00:31:07.011Z,72.16
2022-07-26T00:33:35.597Z,72.52
2022-07-26T00:36:03.674Z,71.94
2022-07-26T00:38:31.881Z,72.71
2022-07-26T00:41:00.092Z,73.08
2022-07-26T00:43:29.634Z,73.34
2022-07-26T00:45:57.714Z,73.99
2022-07-26T00:48:26.219Z,73.86
2022-07-26T00:50:55.761Z,73.79
2022-07-26T00:53:24.889Z,74.05
2022-07-26T00:55:53.957Z,73.89
2022-07-26T00:58:22.347Z,74.90
2022-07-26T01:00:51.974Z,75.21
2022-07-26T01:03:20.213Z,75.27
2022-07-26T01:05:50.851Z,76.07
2022-07-26T01:08:19.004Z,76.55
2022-07-26T01:10:47.830Z,77.41
2022-07-26T01:13:23.561Z,77.61
2022-07-26T01:15:53.161Z,77.54
2022-07-26T01:18:21.283Z,76.86
2022-07-26T01:20:50.927Z,78.15
2022-07-26T01:23:20.971Z,77.17
2022-07-26T01:25:49.780Z,77.58
2022-07-26T01:28:20.561Z,77.18
2022-07-26T01:30:50.318Z,78.09
2022-07-26T01:33:18.514Z,78.37
2022-07-26T01:35:46.986Z,77.89
2022-07-26T01:38:15.173Z,78.09
2022-07-26T01:40:44.695Z,77.68
2022-07-26T01:43:12.888Z,78.02
2022-07-26T01:45:41.463Z,77.36
2022-07-26T01:48:09.807Z,76.77
2022-07-26T01:50:38.481Z,77.12
2022-07-26T01:53:06.638Z,76.65
2022-07-26T01:55:34.785Z,76.06
2022-07-26T01:58:05.222Z,76.34
2022-07-26T02:00:34.020Z,75.89
2022-07-26T02:03:02.318Z,76.09
2022-07-26T02:05:30.885Z,76.16
2022-07-26T02:07:59.091Z,75.56
2022-07-26T02:10:50.420Z,75.29
2022-07-26T02:13:19.947Z,75.26
2022-07-26T02:15:48.823Z,75.58
2022-07-26T02:18:17.046Z,76.27
2022-07-26T02:20:45.695Z,76.68
2022-07-26T02:23:13.967Z,76.77
2022-07-26T02:25:42.025Z,76.61
2022-07-26T02:28:10.278Z,77.02
2022-07-26T02:30:39.824Z,77.12
2022-07-26T02:33:08.428Z,77.04
2022-07-26T02:35:36.800Z,76.88
2022-07-26T02:38:06.402Z,76.40
2022-07-26T02:40:35.215Z,76.22
2022-07-26T02:43:03.473Z,76.06
2022-07-26T02:45:31.591Z,75.65
2022-07-26T02:48:01.624Z,75.48
2022-07-26T02:50:30.706Z,75.37
2022-07-26T02:52:58.966Z,75.42
2022-07-26T02:55:28.372Z,74.56
2022-07-26T02:57:56.595Z,75.44
2022-07-26T03:00:26.196Z,75.58
2022-07-26T03:02:54.678Z,75.86
2022-07-26T03:05:24.771Z,76.04
2022-07-26T03:07:53.025Z,76.46
2022-07-26T03:10:21.311Z,76.92
2022-07-26T03:12:49.416Z,76.72
2022-07-26T03:15:17.647Z,77.39
2022-07-26T03:17:45.744Z,77.85
2022-07-26T03:20:14.525Z,78.69
2022-07-26T03:22:44.629Z,78.92
2022-07-26T03:25:13.029Z,79.03
2022-07-26T03:27:41.181Z,79.27
2022-07-26T03:30:10.490Z,79.42
2022-07-26T03:32:38.722Z,78.62
2022-07-26T03:35:08.539Z,78.76
2022-07-26T03:37:44.928Z,79.34
2022-07-26T03:40:16.129Z,78.84
2022-07-26T03:42:46.227Z,78.00
2022-07-26T03:45:14.738Z,77.52
2022-07-26T03:47:42.934Z,76.39
2022-07-26T03:50:14.111Z,76.11
2022-07-26T03:52:42.520Z,75.94
2022-07-26T03:55:29.078Z,75.48
2022-07-26T03:57:59.072Z,75.00
2022-07-26T04:00:27.358Z,72.17
2022-07-26T04:02:55.522Z,71.12
2022-07-26T04:05:26.045Z,70.07
2022-07-26T04:07:54.721Z,70.28
2022-07-26T04:10:24.842Z,70.55
2022-07-26T04:12:55.387Z,70.19
2022-07-26T04:15:24.896Z,69.54
2022-07-26T04:17:53.025Z,69.11
2022-07-26T04:20:21.128Z,68.25
2022-07-26T04:22:49.248Z,68.18
2022-07-26T04:25:17.438Z,67.98
2022-07-26T04:27:45.552Z,68.16
2022-07-26T04:30:15.684Z,67.35
2022-07-26T04:32:46.677Z,66.37
2022-07-26T04:35:16.219Z,65.62
2022-07-26T04:37:45.235Z,65.43
2022-07-26T04:40:21.258Z,64.60
2022-07-26T04:42:51.513Z,63.95
2022-07-26T04:45:19.749Z,63.34
2022-07-26T04:47:51.533Z,62.58
2022-07-26T04:50:20.506Z,61.89
2022-07-26T04:52:49.996Z,61.88
2022-07-26T04:55:18.819Z,62.42
2022-07-26T04:57:48.399Z,62.62
2022-07-26T05:00:22.950Z,61.85
2022-07-26T05:02:56.534Z,61.32
2022-07-26T05:05:25.516Z,59.97
2022-07-26T05:07:55.622Z,60.08
2022-07-26T05:10:29.195Z,60.01
2022-07-26T05:12:57.296Z,59.46
2022-07-26T05:15:25.994Z,58.84
2022-07-26T05:18:07.084Z,56.56
2022-07-26T05:20:36.830Z,55.91
2022-07-26T05:23:05.191Z,54.63
2022-07-26T05:25:33.729Z,52.88
2022-07-26T05:28:01.891Z,51.91
2022-07-26T05:30:30.475Z,52.25
2022-07-26T05:32:58.642Z,51.64
2022-07-26T05:35:28.517Z,51.64
2022-07-26T05:37:56.644Z,51.91
2022-07-26T05:40:24.960Z,52.26
2022-07-26T05:42:53.165Z,53.01
2022-07-26T05:45:21.882Z,52.42
2022-07-26T05:47:51.421Z,53.51
2022-07-26T05:50:20.610Z,52.47
2022-07-26T05:52:50.933Z,51.87
2022-07-26T05:55:19.369Z,51.00
2022-07-26T05:57:49.472Z,51.35
2022-07-26T06:00:18.553Z,52.60
2022-07-26T06:02:47.964Z,52.68
2022-07-26T06:05:16.413Z,52.63
2022-07-26T06:07:46.105Z,52.76
2022-07-26T06:10:16.093Z,52.31
2022-07-26T06:12:44.181Z,53.37
2022-07-26T06:15:15.570Z,53.40
2022-07-26T06:17:44.411Z,53.29
2022-07-26T06:20:13.151Z,52.70
2022-07-26T06:22:41.362Z,52.11
2022-07-26T06:25:10.045Z,52.63
2022-07-26T06:27:39.669Z,53.81
2022-07-26T06:30:10.454Z,54.26
2022-07-26T06:32:38.640Z,53.78
2022-07-26T06:35:07.576Z,53.03
2022-07-26T06:37:38.096Z,52.33
2022-07-26T06:40:08.129Z,51.82
2022-07-26T06:42:36.894Z,52.47
2022-07-26T06:45:08.070Z,52.33
2022-07-26T06:47:36.554Z,52.76
2022-07-26T06:50:06.376Z,52.10
2022-07-26T06:52:35.044Z,52.59
2022-07-26T06:55:03.899Z,52.66
2022-07-26T06:57:32.503Z,52.54
2022-07-26T07:00:00.849Z,52.26
2022-07-26T07:02:30.544Z,52.49
2022-07-26T07:04:58.928Z,53.47
2022-07-26T07:07:27.429Z,52.93
2022-07-26T07:09:57.175Z,52.61
2022-07-26T07:12:27.287Z,52.28
2022-07-26T07:14:55.486Z,51.82
2022-07-26T07:17:23.786Z,52.47
2022-07-26T07:19:53.649Z,53.02
2022-07-26T07:22:22.478Z,52.24
2022-07-26T07:24:50.632Z,52.39
2022-07-26T07:27:18.885Z,52.04
2022-07-26T07:29:49.140Z,52.37
2022-07-26T07:32:18.881Z,52.32
2022-07-26T07:34:50.054Z,53.12
2022-07-26T07:37:20.778Z,53.44
2022-07-26T07:39:50.276Z,53.36
2022-07-26T07:42:19.261Z,53.13
2022-07-26T07:44:48.538Z,53.25
2022-07-26T07:47:16.843Z,53.15
2022-07-26T07:49:45.160Z,52.35
2022-07-26T07:52:13.284Z,50.84
2022-07-26T07:54:42.893Z,48.44
2022-07-26T07:57:11.956Z,48.74
2022-07-26T07:59:42.993Z,48.67
2022-07-26T08:02:12.898Z,47.53
2022-07-26T08:04:41.145Z,47.78
2022-07-26T08:07:09.368Z,48.29
2022-07-26T08:09:37.565Z,48.57
2022-07-26T08:12:12.971Z,48.58
2022-07-26T08:14:41.631Z,49.11
2022-07-26T08:17:09.779Z,48.62
2022-07-26T08:19:41.886Z,48.38
2022-07-26T08:22:10.806Z,49.57
2022-07-26T08:24:39.005Z,49.91
2022-07-26T08:27:07.129Z,48.57
2022-07-26T08:29:36.870Z,48.61
2022-07-26T08:32:05.574Z,48.21
2022-07-26T08:34:33.743Z,47.99
2022-07-26T08:37:16.549Z,47.90
2022-07-26T08:39:46.922Z,46.00
2022-07-26T08:42:16.259Z,47.13
2022-07-26T08:44:47.080Z,47.06
2022-07-26T08:47:16.315Z,47.91
2022-07-26T08:49:49.684Z,47.32
2022-07-26T08:52:18.488Z,46.46
2022-07-26T08:54:47.932Z,45.68
2022-07-26T08:57:16.689Z,45.67
2022-07-26T08:59:47.760Z,45.52
2022-07-26T09:02:16.093Z,45.80
2022-07-26T09:04:46.456Z,44.97
2022-07-26T09:07:16.789Z,45.90
2022-07-26T09:09:59.092Z,45.62
2022-07-26T09:12:28.917Z,45.39
2022-07-26T09:14:59.552Z,44.85
2022-07-26T09:17:40.718Z,44.08
2022-07-26T09:20:11.060Z,43.84
2022-07-26T09:22:41.208Z,43.45
2022-07-26T09:25:22.865Z,43.02
2022-07-26T09:27:52.361Z,43.41
2022-07-26T09:30:22.268Z,44.07
2022-07-26T09:33:05.886Z,44.80
2022-07-26T09:35:52.122Z,44.60
2022-07-26T09:38:20.905Z,44.52
2022-07-26T09:41:03.799Z,44.11
2022-07-26T09:43:38.700Z,43.31
2022-07-26T09:46:11.316Z,43.98
2022-07-26T09:51:40.278Z,43.79
2022-07-26T09:54:10.092Z,43.68
2022-07-26T09:56:47.174Z,44.56
2022-07-26T09:59:17.451Z,43.25
2022-07-26T10:01:47.619Z,43.75
2022-07-26T10:04:16.471Z,43.08
2022-07-26T10:06:45.105Z,43.55
2022-07-26T10:09:14.611Z,43.20
2022-07-26T10:11:44.648Z,42.75
2022-07-26T10:14:38.794Z,42.64
2022-07-26T10:17:40.901Z,43.00
2022-07-26T10:20:17.461Z,43.81
2022-07-26T10:22:49.124Z,44.69
2022-07-26T10:25:48.931Z,43.52
2022-07-26T10:28:28.564Z,43.41
2022-07-26T10:31:31.883Z,41.22
2022-07-26T10:34:02.738Z,41.47
2022-07-26T10:36:38.318Z,41.81
2022-07-26T10:39:13.633Z,41.04
2022-07-26T10:41:45.479Z,40.22
2022-07-26T10:44:19.894Z,40.24
2022-07-26T10:47:18.931Z,39.77
2022-07-26T10:49:58.981Z,39.74
2022-07-26T10:52:30.780Z,35.97
2022-07-26T10:55:18.344Z,36.14
2022-07-26T10:57:48.972Z,35.73
2022-07-26T11:00:20.527Z,34.99
2022-07-26T11:02:57.532Z,35.17
2022-07-26T11:05:31.220Z,35.27
2022-07-26T11:08:11.155Z,33.69
2022-07-26T11:10:40.753Z,34.24
2022-07-26T11:13:12.403Z,34.32
2022-07-26T11:15:43.198Z,33.72
2022-07-26T11:18:32.716Z,31.85
2022-07-26T11:21:11.348Z,30.99
2022-07-26T11:23:44.838Z,30.85
2022-07-26T11:26:15.994Z,30.41
2022-07-26T11:28:57.825Z,30.97
2022-07-26T11:31:51.490Z,31.18
2022-07-26T11:34:20.187Z,31.60
2022-07-26T11:36:49.269Z,30.96
2022-07-26T11:39:24.454Z,30.48
2022-07-26T11:41:58.024Z,30.44
2022-07-26T11:44:26.478Z,31.28
2022-07-26T11:46:54.946Z,30.79
2022-07-26T11:49:52.457Z,30.34
2022-07-26T11:52:15.807Z,30.84
2022-07-26T11:54:55.662Z,30.22
2022-07-26T11:57:30.007Z,29.69
2022-07-26T12:00:00.892Z,29.86
2022-07-26T12:02:30.255Z,29.12
2022-07-26T12:05:15.221Z,28.79
2022-07-26T12:07:58.944Z,28.41
2022-07-26T12:10:29.496Z,29.03
2022-07-26T12:13:14.911Z,28.95
2022-07-26T12:15:48.690Z,29.39
2022-07-26T12:18:24.621Z,28.99
2022-07-26T12:21:05.208Z,28.78
2022-07-26T12:23:45.926Z,28.33
2022-07-26T12:26:23.615Z,28.83
2022-07-26T12:28:52.280Z,28.02
2022-07-26T12:31:25.440Z,27.87
2022-07-26T12:33:53.989Z,27.77
2022-07-26T12:36:27.752Z,28.21
2022-07-26T12:38:57.895Z,28.67
2022-07-26T12:41:39.425Z,28.56
2022-07-26T12:44:11.926Z,28.62
2022-07-26T12:46:40.443Z,28.51
2022-07-26T12:49:08.793Z,28.51
2022-07-26T12:51:37.335Z,29.11
2022-07-26T12:54:06.693Z,29.85
2022-07-26T12:56:36.498Z,29.80
2022-07-26T12:59:04.717Z,29.57
2022-07-26T13:01:33.722Z,29.06
2022-07-26T13:04:02.137Z,28.81
2022-07-26T13:06:30.494Z,28.66
2022-07-26T13:08:58.552Z,28.30
2022-07-26T13:11:26.783Z,28.22
2022-07-26T13:13:57.376Z,28.40
2022-07-26T13:16:26.248Z,28.31
2022-07-26T13:18:54.526Z,28.00
2022-07-26T13:21:22.699Z,28.09
2022-07-26T13:23:51.164Z,28.15
2022-07-26T13:26:19.302Z,28.95
2022-07-26T13:28:49.890Z,29.14
2022-07-26T13:31:20.588Z,28.79
2022-07-26T13:33:48.757Z,29.00
2022-07-26T13:36:17.088Z,29.15
2022-07-26T13:38:45.230Z,29.31
2022-07-26T13:41:13.515Z,28.29
2022-07-26T13:43:41.708Z,28.29
2022-07-26T13:46:09.845Z,28.49
2022-07-26T13:48:48.061Z,28.65
2022-07-26T13:51:20.865Z,28.68
2022-07-26T13:53:54.771Z,27.84
2022-07-26T13:56:23.689Z,27.76
2022-07-26T13:58:51.716Z,27.62
2022-07-26T14:01:19.976Z,27.81
2022-07-26T14:04:10.849Z,27.97
2022-07-26T14:06:40.276Z,28.49
2022-07-26T14:09:11.000Z,28.09
2022-07-26T14:11:40.600Z,28.09
2022-07-26T14:14:09.531Z,28.32
2022-07-26T14:16:38.920Z,28.07
2022-07-26T14:19:07.205Z,29.00
2022-07-26T14:21:45.498Z,29.08
2022-07-26T14:24:26.502Z,28.81
2022-07-26T14:26:59.258Z,29.23
2022-07-26T14:29:29.369Z,29.08
2022-07-26T14:31:57.893Z,29.23
2022-07-26T14:34:26.080Z,29.41
2022-07-26T14:36:55.775Z,29.39
2022-07-26T14:39:23.819Z,28.71
2022-07-26T14:41:52.054Z,29.08
2022-07-26T14:44:20.361Z,28.49
2022-07-26T14:46:48.518Z,28.91
2022-07-26T14:49:16.699Z,28.23
2022-07-26T14:51:45.703Z,28.13
2022-07-26T14:54:18.218Z,27.40
2022-07-26T14:56:46.482Z,27.36
2022-07-26T14:59:14.729Z,27.60
2022-07-26T15:01:43.285Z,28.11
2022-07-26T15:04:11.891Z,28.69
2022-07-26T15:06:40.317Z,29.71
2022-07-26T15:09:08.376Z,28.95
2022-07-26T15:11:37.931Z,28.84
2022-07-26T15:14:06.602Z,29.52
2022-07-26T15:16:34.894Z,29.87
2022-07-26T15:19:03.191Z,29.92
2022-07-26T15:21:31.383Z,29.50
2022-07-26T15:23:59.521Z,30.16
2022-07-26T15:26:27.645Z,31.00
2022-07-26T15:28:57.270Z,30.71
2022-07-26T15:31:37.395Z,30.40
2022-07-26T15:34:07.908Z,30.35
2022-07-26T15:36:36.324Z,30.32
2022-07-26T15:39:15.945Z,29.89
2022-07-26T15:41:45.469Z,29.54
2022-07-26T15:44:17.398Z,29.15
2022-07-26T15:46:48.023Z,29.66
2022-07-26T15:49:18.156Z,29.69
2022-07-26T15:51:46.990Z,29.85
2022-07-26T15:54:16.408Z,30.27
2022-07-26T15:56:44.773Z,30.27
2022-07-26T15:59:14.247Z,30.02
2022-07-26T16:01:42.611Z,29.44
2022-07-26T16:04:11.119Z,29.42
2022-07-26T16:06:40.079Z,30.37
2022-07-26T16:09:17.712Z,30.27
2022-07-26T16:11:46.806Z,29.98
2022-07-26T16:14:16.577Z,30.79
2022-07-26T16:16:45.164Z,30.83
2022-07-26T16:19:13.924Z,30.60
2022-07-26T16:21:42.383Z,30.48
2022-07-26T16:24:10.596Z,30.88
2022-07-26T16:26:38.741Z,31.01
2022-07-26T16:29:07.257Z,30.55
2022-07-26T16:31:37.559Z,31.56
2022-07-26T16:34:05.677Z,31.86
2022-07-26T16:36:33.873Z,31.30
2022-07-26T16:39:02.173Z,31.86
2022-07-26T16:41:30.445Z,31.12
2022-07-26T16:43:58.961Z,29.98
2022-07-26T16:46:27.932Z,30.92
2022-07-26T16:48:57.680Z,30.60
2022-07-26T16:51:26.007Z,29.93
2022-07-26T16:53:55.281Z,30.02
2022-07-26T16:56:23.453Z,30.41
2022-07-26T16:58:51.876Z,31.10
2022-07-26T17:01:20.062Z,31.09
2022-07-26T17:03:48.606Z,30.90
2022-07-26T17:06:18.245Z,31.39
2022-07-26T17:08:46.689Z,31.47
2022-07-26T17:11:14.871Z,31.59
2022-07-26T17:13:43.089Z,32.02
2022-07-26T17:16:11.319Z,32.52
2022-07-26T17:18:39.579Z,32.33
2022-07-26T17:21:07.872Z,32.62
2022-07-26T17:23:38.659Z,32.94
2022-07-26T17:26:06.837Z,33.14
2022-07-26T17:28:34.956Z,32.94
2022-07-26T17:31:03.152Z,33.89
2022-07-26T17:33:31.621Z,34.38
2022-07-26T17:36:03.275Z,34.26
2022-07-26T17:38:32.888Z,35.54
2022-07-26T17:41:04.011Z,35.86
2022-07-26T17:43:36.758Z,36.67
2022-07-26T17:46:05.517Z,36.84
2022-07-26T17:48:34.428Z,37.15
2022-07-26T17:51:02.565Z,37.41
2022-07-26T17:53:34.166Z,37.87
2022-07-26T17:56:04.349Z,38.33
2022-07-26T17:58:33.656Z,38.74
2022-07-26T18:01:01.802Z,39.11
2022-07-26T18:03:30.098Z,40.06
2022-07-26T18:05:58.577Z,40.25
2022-07-26T18:08:28.133Z,40.28
2022-07-26T18:10:56.957Z,40.45
2022-07-26T18:13:27.097Z,40.96
2022-07-26T18:15:55.762Z,41.17
2022-07-26T18:18:24.739Z,41.44
2022-07-26T18:20:53.194Z,41.22
2022-07-26T18:23:21.714Z,41.45
2022-07-26T18:25:49.888Z,41.49
2022-07-26T18:28:18.230Z,41.71
2022-07-26T18:30:47.770Z,42.16
2022-07-26T18:33:15.900Z,42.24
2022-07-26T18:35:44.159Z,42.06
2022-07-26T18:38:12.859Z,41.56
2022-07-26T18:40:41.097Z,41.82
2022-07-26T18:43:09.534Z,42.09
2022-07-26T18:45:38.450Z,42.17
2022-07-26T18:48:08.652Z,42.68
2022-07-26T18:50:40.078Z,43.39
2022-07-26T18:53:08.651Z,43.56
2022-07-26T18:55:37.102Z,43.81
2022-07-26T18:58:07.043Z,44.23
2022-07-26T19:00:37.069Z,44.16
2022-07-26T19:03:05.614Z,44.45
2022-07-26T19:05:35.729Z,45.43
2022-07-26T19:08:05.666Z,46.55
2022-07-26T19:10:33.840Z,47.03
2022-07-26T19:13:02.170Z,47.12
2022-07-26T19:15:31.393Z,46.89
2022-07-26T19:17:59.723Z,45.76
2022-07-26T19:20:27.988Z,45.84
2022-07-26T19:22:57.939Z,46.96
2022-07-26T19:25:26.348Z,46.39
2022-07-26T19:27:55.032Z,46.22
2022-07-26T19:30:23.704Z,46.54
2022-07-26T19:32:51.984Z,46.50
2022-07-26T19:35:20.949Z,46.08
2022-07-26T19:37:49.083Z,46.01
2022-07-26T19:40:18.724Z,45.35
2022-07-26T19:42:47.761Z,45.08
2022-07-26T19:45:16.059Z,44.39
2022-07-26T19:47:44.622Z,44.58
2022-07-26T19:50:13.104Z,44.35
2022-07-26T19:52:41.495Z,44.27
2022-07-26T19:55:10.931Z,44.26
2022-07-26T19:57:40.553Z,44.26
2022-07-26T20:00:10.565Z,44.25
2022-07-26T20:02:41.050Z,44.35
2022-07-26T20:05:10.696Z,44.66
2022-07-26T20:07:39.312Z,44.00
2022-07-26T20:10:11.759Z,44.10
2022-07-26T20:12:42.617Z,43.98
2022-07-26T20:15:11.993Z,44.17
2022-07-26T20:17:41.525Z,43.92
2022-07-26T20:20:11.957Z,44.38
2022-07-26T20:22:40.573Z,44.24
2022-07-26T20:25:09.733Z,44.29
2022-07-26T20:27:38.005Z,44.14
2022-07-26T20:30:09.407Z,43.84
2022-07-26T20:32:37.587Z,44.09
2022-07-26T20:35:06.283Z,44.17
2022-07-26T20:37:34.525Z,43.77
2022-07-26T20:40:02.868Z,44.22
2022-07-26T20:42:31.792Z,44.28
2022-07-26T20:45:01.223Z,44.71
2022-07-26T20:47:31.182Z,44.63
2022-07-26T20:50:03.179Z,45.20
2022-07-26T20:52:32.463Z,45.48
2022-07-26T20:55:00.678Z,45.24
2022-07-26T20:57:28.934Z,46.30
2022-07-26T20:59:57.197Z,47.11
2022-07-26T21:02:25.521Z,47.40
2022-07-26T21:04:55.301Z,48.23
2022-07-26T21:07:24.311Z,48.89
2022-07-26T21:10:13.080Z,48.95
2022-07-26T21:12:41.239Z,49.75
2022-07-26T21:15:10.300Z,49.98
2022-07-26T21:17:39.703Z,50.65
2022-07-26T21:20:10.079Z,50.90
2022-07-26T21:22:38.468Z,52.42
2022-07-26T21:25:08.097Z,52.87
2022-07-26T21:27:36.316Z,53.88
2022-07-26T21:30:05.121Z,54.22
2022-07-26T21:32:33.282Z,54.81
2022-07-26T21:35:01.854Z,54.80
2022-07-26T21:37:33.243Z,55.30
2022-07-26T21:40:01.536Z,56.27
2022-07-26T21:42:29.805Z,56.38
2022-07-26T21:44:57.901Z,56.65
2022-07-26T21:47:25.963Z,57.18
2022-07-26T21:49:54.046Z,57.73
2022-07-26T21:52:22.186Z,58.42
2022-07-26T21:54:51.737Z,58.48
2022-07-26T21:57:20.174Z,58.42
2022-07-26T21:59:49.548Z,58.85
2022-07-26T22:02:19.969Z,59.12
2022-07-26T22:04:50.026Z,58.67
2022-07-26T22:07:18.222Z,58.75
2022-07-26T22:09:46.486Z,59.11
2022-07-26T22:12:17.565Z,59.37
2022-07-26T22:14:45.974Z,59.23
2022-07-26T22:17:15.404Z,59.96
2022-07-26T22:19:43.555Z,60.04
2022-07-26T22:22:11.814Z,60.12
2022-07-26T22:24:39.922Z,60.41
2022-07-26T22:27:08.049Z,60.88
2022-07-26T22:29:38.833Z,61.13
2022-07-26T22:32:08.182Z,61.03
2022-07-26T22:34:36.533Z,61.53
2022-07-26T22:37:04.720Z,61.59
2022-07-26T22:39:32.869Z,62.26
2022-07-26T22:42:15.704Z,63.38
2022-07-26T22:44:45.811Z,63.53
2022-07-26T22:47:13.922Z,64.00
2022-07-26T22:49:42.062Z,64.07
2022-07-26T22:52:10.325Z,64.36
2022-07-26T22:54:38.496Z,64.22
2022-07-26T22:57:06.663Z,64.51
2022-07-26T22:59:34.873Z,65.30
2022-07-26T23:02:04.593Z,65.47
2022-07-26T23:04:32.729Z,65.44
2022-07-26T23:07:02.484Z,65.13
2022-07-26T23:09:32.831Z,65.12
2022-07-26T23:12:00.970Z,64.85
2022-07-26T23:14:29.245Z,65.23
2022-07-26T23:16:57.369Z,65.39
2022-07-26T23:19:27.344Z,64.34
2022-07-26T23:21:55.546Z,63.01
2022-07-26T23:24:23.881Z,63.36
2022-07-26T23:26:51.951Z,62.83
2022-07-26T23:29:20.108Z,60.55
2022-07-26T23:31:48.298Z,59.71
2022-07-26T23:34:16.503Z,60.14
2022-07-26T23:36:46.373Z,59.24
2022-07-26T23:39:14.977Z,59.74
2022-07-26T23:41:43.257Z,59.91
2022-07-26T23:44:11.452Z,59.66
2022-07-26T23:46:40.263Z,59.44
2022-07-26T23:49:08.767Z,59.68
2022-07-26T23:51:39.191Z,59.86
2022-07-26T23:54:08.760Z,60.15
2022-07-26T23:56:36.872Z,60.19
2022-07-26T23:59:04.966Z,60.50
